Ban Gong Hu — BOEY — position and weather

sailwx.info

Track history (hours):
 
Tides and Currents Weather Stations Pressure Air Temp Water Temp Dewpoint Dewpoint Depression Visibility Wind Speed Wind Dir Waves Ship Positions

Ban Gong Hu

Last reported at 2017-Apr-22 02:28 UTC. Time now 2017-Apr-28 15:48 UTC.
Position N 38°29' E 122°09'.

Length 229 m; draft 8.5 m.

Type: Tanker. MMSI: 412371000.

Date/timePositionNaut miles runAvg speedWind from/ knotsBaromVisibWave heightAir tempDewpointWater temp
2017-Apr-22 02:28N 38°29' E 122°09'814.2
2017-Apr-22 01:54N 38°35' E 122°01'614.3
2017-Apr-22 01:30N 38°39' E 121°56'714.1
2017-Apr-22 01:01N 38°43' E 121°50'713.2
2017-Apr-22 00:30N 38°49' E 121°45'611.5
2017-Apr-21 23:59N 38°55' E 121°46'4 7.6
2017-Apr-21 23:29N 38°59' E 121°48'0 0.0
2017-Apr-20 07:54N 38°59' E 121°48'0 0.7
2017-Apr-20 07:29N 38°58' E 121°48'4 9.0
2017-Apr-20 07:01N 38°54' E 121°47'4 8.1
2017-Apr-20 06:31N 38°50' E 121°49'510.5
2017-Apr-20 06:01N 38°52' E 121°56'5 9.7
2017-Apr-20 05:30N 38°55' E 122°01'1 0.9
2017-Apr-20 04:57N 38°55' E 122°01'0 0.0
2017-Apr-20 04:21N 38°55' E 122°01'0 0.0
2017-Apr-20 03:57N 38°55' E 122°01'0 0.0
2017-Apr-20 03:15N 38°55' E 122°01'0 0.0
2017-Apr-20 02:15N 38°55' E 122°01'0 0.0
2017-Apr-20 01:39N 38°55' E 122°01'0 0.0
2017-Apr-19 17:21N 38°55' E 122°01'0 0.0
2017-Apr-18 19:00N 38°55' E 122°01'0 0.0
2017-Apr-18 04:42N 38°55' E 122°01'0 0.0
2017-Apr-17 17:03N 38°55' E 122°01'0 0.0
2017-Apr-17 16:57N 38°55' E 122°01'2 0.0
2017-Apr-15 17:14N 38°54' E 122°03'18 0.9
2017-Apr-14 20:37N 38°36' E 122°00'1 9.0
2017-Apr-14 20:28N 38°35' E 122°01'4 9.0
2017-Apr-14 19:59N 38°31' E 122°04'7 8.8
2017-Apr-14 19:11N 38°26' E 122°09'2 8.8
2017-Apr-14 19:00N 38°24' E 122°10'1810.7
2017-Apr-14 17:17N 38°10' E 122°25'2414.7
2017-Apr-14 15:39N 37°51' E 122°43'214.7
2017-Apr-14 15:30N 37°49' E 122°45'814.8
2017-Apr-14 15:00N 37°43' E 122°51'  
Track history (hours):
 
Tides and Currents Weather Stations Pressure Air Temp Water Temp Dewpoint Dewpoint Depression Visibility Wind Speed Wind Dir Waves Ship Positions

Ban Gong Hu

Last reported at 2017-Apr-22 02:28 UTC. Time now 2017-Apr-28 15:48 UTC.
Position N 38°29' E 122°09'.

Length 229 m; draft 8.5 m.

Type: Tanker. MMSI: 412371000.

Date/timePositionNaut miles runAvg speedWind from/ knotsBaromVisibWave heightAir tempDewpointWater temp
2017-Apr-22 02:28N 38°29' E 122°09'814.2
2017-Apr-22 01:54N 38°35' E 122°01'614.3
2017-Apr-22 01:30N 38°39' E 121°56'714.1
2017-Apr-22 01:01N 38°43' E 121°50'713.2
2017-Apr-22 00:30N 38°49' E 121°45'611.5
2017-Apr-21 23:59N 38°55' E 121°46'4 7.6
2017-Apr-21 23:29N 38°59' E 121°48'0 0.0
2017-Apr-20 07:54N 38°59' E 121°48'0 0.7
2017-Apr-20 07:29N 38°58' E 121°48'4 9.0
2017-Apr-20 07:01N 38°54' E 121°47'4 8.1
2017-Apr-20 06:31N 38°50' E 121°49'510.5
2017-Apr-20 06:01N 38°52' E 121°56'5 9.7
2017-Apr-20 05:30N 38°55' E 122°01'1 0.9
2017-Apr-20 04:57N 38°55' E 122°01'0 0.0
2017-Apr-20 04:21N 38°55' E 122°01'0 0.0
2017-Apr-20 03:57N 38°55' E 122°01'0 0.0
2017-Apr-20 03:15N 38°55' E 122°01'0 0.0
2017-Apr-20 02:15N 38°55' E 122°01'0 0.0
2017-Apr-20 01:39N 38°55' E 122°01'0 0.0
2017-Apr-19 17:21N 38°55' E 122°01'0 0.0
2017-Apr-18 19:00N 38°55' E 122°01'0 0.0
2017-Apr-18 04:42N 38°55' E 122°01'0 0.0
2017-Apr-17 17:03N 38°55' E 122°01'0 0.0
2017-Apr-17 16:57N 38°55' E 122°01'2 0.0
2017-Apr-15 17:14N 38°54' E 122°03'18 0.9
2017-Apr-14 20:37N 38°36' E 122°00'1 9.0
2017-Apr-14 20:28N 38°35' E 122°01'4 9.0
2017-Apr-14 19:59N 38°31' E 122°04'7 8.8
2017-Apr-14 19:11N 38°26' E 122°09'2 8.8
2017-Apr-14 19:00N 38°24' E 122°10'1810.7
2017-Apr-14 17:17N 38°10' E 122°25'2414.7
2017-Apr-14 15:39N 37°51' E 122°43'214.7
2017-Apr-14 15:30N 37°49' E 122°45'814.8
2017-Apr-14 15:00N 37°43' E 122°51'  

Dump ship's entire track history